sensor_id;sensor_type;location;lat;lon;timestamp;P1;durP1;ratioP1;P2;durP2;ratioP2
78183;SDS011;67442;44.570;18.610;2023-11-21T00:02:05;31.90;;;17.00;;
78183;SDS011;67442;44.570;18.610;2023-11-21T00:04:33;32.33;;;17.88;;
78183;SDS011;67442;44.570;18.610;2023-11-21T00:06:59;33.35;;;18.95;;
78183;SDS011;67442;44.570;18.610;2023-11-21T00:09:27;31.95;;;18.08;;
78183;SDS011;67442;44.570;18.610;2023-11-21T00:11:54;34.92;;;18.30;;
78183;SDS011;67442;44.570;18.610;2023-11-21T00:14:21;31.35;;;17.98;;
78183;SDS011;67442;44.570;18.610;2023-11-21T00:16:51;34.15;;;18.42;;
78183;SDS011;67442;44.570;18.610;2023-11-21T00:19:23;32.13;;;17.63;;
78183;SDS011;67442;44.570;18.610;2023-11-21T00:21:50;33.10;;;18.33;;
78183;SDS011;67442;44.570;18.610;2023-11-21T00:24:22;31.48;;;17.77;;
78183;SDS011;67442;44.570;18.610;2023-11-21T00:26:50;30.90;;;18.25;;
78183;SDS011;67442;44.570;18.610;2023-11-21T00:29:22;32.35;;;17.35;;
78183;SDS011;67442;44.570;18.610;2023-11-21T00:31:49;31.77;;;17.95;;
78183;SDS011;67442;44.570;18.610;2023-11-21T00:34:16;31.70;;;17.38;;
78183;SDS011;67442;44.570;18.610;2023-11-21T00:36:44;30.80;;;17.20;;
78183;SDS011;67442;44.570;18.610;2023-11-21T00:39:11;34.35;;;18.42;;
78183;SDS011;67442;44.570;18.610;2023-11-21T00:41:38;32.70;;;18.60;;
78183;SDS011;67442;44.570;18.610;2023-11-21T00:44:05;33.33;;;18.02;;
78183;SDS011;67442;44.570;18.610;2023-11-21T00:46:36;34.42;;;19.27;;
78183;SDS011;67442;44.570;18.610;2023-11-21T00:49:04;30.73;;;17.27;;
78183;SDS011;67442;44.570;18.610;2023-11-21T00:51:31;30.98;;;17.45;;
78183;SDS011;67442;44.570;18.610;2023-11-21T00:53:59;32.28;;;18.08;;
78183;SDS011;67442;44.570;18.610;2023-11-21T00:56:26;33.03;;;18.20;;
78183;SDS011;67442;44.570;18.610;2023-11-21T00:58:53;32.83;;;18.23;;
78183;SDS011;67442;44.570;18.610;2023-11-21T01:01:20;33.42;;;18.83;;
78183;SDS011;67442;44.570;18.610;2023-11-21T01:03:50;37.50;;;19.40;;
78183;SDS011;67442;44.570;18.610;2023-11-21T01:06:22;33.20;;;17.95;;
78183;SDS011;67442;44.570;18.610;2023-11-21T01:08:49;34.53;;;19.65;;
78183;SDS011;67442;44.570;18.610;2023-11-21T01:11:20;32.35;;;18.33;;
78183;SDS011;67442;44.570;18.610;2023-11-21T01:13:47;34.67;;;19.27;;
78183;SDS011;67442;44.570;18.610;2023-11-21T01:16:18;30.75;;;18.25;;
78183;SDS011;67442;44.570;18.610;2023-11-21T01:18:45;32.85;;;18.33;;
78183;SDS011;67442;44.570;18.610;2023-11-21T01:21:16;33.08;;;18.27;;
78183;SDS011;67442;44.570;18.610;2023-11-21T01:23:44;34.38;;;18.92;;
78183;SDS011;67442;44.570;18.610;2023-11-21T01:26:13;33.50;;;17.42;;
78183;SDS011;67442;44.570;18.610;2023-11-21T01:28:40;33.20;;;18.48;;
78183;SDS011;67442;44.570;18.610;2023-11-21T01:31:07;31.73;;;17.92;;
78183;SDS011;67442;44.570;18.610;2023-11-21T01:33:35;32.67;;;18.95;;
78183;SDS011;67442;44.570;18.610;2023-11-21T01:36:02;32.03;;;18.00;;
78183;SDS011;67442;44.570;18.610;2023-11-21T01:38:31;31.20;;;18.17;;
78183;SDS011;67442;44.570;18.610;2023-11-21T01:41:02;33.13;;;17.95;;
78183;SDS011;67442;44.570;18.610;2023-11-21T01:43:31;32.80;;;18.70;;
78183;SDS011;67442;44.570;18.610;2023-11-21T01:45:59;37.90;;;18.90;;
78183;SDS011;67442;44.570;18.610;2023-11-21T01:48:27;29.58;;;17.35;;
78183;SDS011;67442;44.570;18.610;2023-11-21T01:50:55;33.70;;;17.92;;
78183;SDS011;67442;44.570;18.610;2023-11-21T01:53:23;32.03;;;18.15;;
78183;SDS011;67442;44.570;18.610;2023-11-21T01:55:52;30.98;;;18.05;;
78183;SDS011;67442;44.570;18.610;2023-11-21T01:58:21;32.97;;;18.80;;
78183;SDS011;67442;44.570;18.610;2023-11-21T02:00:48;31.15;;;17.48;;
78183;SDS011;67442;44.570;18.610;2023-11-21T02:03:16;31.02;;;17.73;;
78183;SDS011;67442;44.570;18.610;2023-11-21T02:05:44;32.63;;;18.42;;
78183;SDS011;67442;44.570;18.610;2023-11-21T02:08:11;30.27;;;17.35;;
78183;SDS011;67442;44.570;18.610;2023-11-21T02:10:38;30.45;;;17.77;;
78183;SDS011;67442;44.570;18.610;2023-11-21T02:13:06;32.53;;;17.23;;
78183;SDS011;67442;44.570;18.610;2023-11-21T02:15:33;29.98;;;17.15;;
78183;SDS011;67442;44.570;18.610;2023-11-21T02:18:01;34.50;;;18.00;;
78183;SDS011;67442;44.570;18.610;2023-11-21T02:20:28;34.97;;;19.00;;
78183;SDS011;67442;44.570;18.610;2023-11-21T02:22:59;31.65;;;18.08;;
78183;SDS011;67442;44.570;18.610;2023-11-21T02:25:28;30.77;;;17.73;;
78183;SDS011;67442;44.570;18.610;2023-11-21T02:27:56;28.52;;;16.98;;
78183;SDS011;67442;44.570;18.610;2023-11-21T02:30:25;31.42;;;17.42;;
78183;SDS011;67442;44.570;18.610;2023-11-21T02:32:56;30.85;;;17.50;;
78183;SDS011;67442;44.570;18.610;2023-11-21T02:35:27;32.80;;;18.23;;
78183;SDS011;67442;44.570;18.610;2023-11-21T02:37:54;29.58;;;16.80;;
78183;SDS011;67442;44.570;18.610;2023-11-21T02:40:21;29.40;;;16.98;;
78183;SDS011;67442;44.570;18.610;2023-11-21T02:42:53;33.88;;;18.85;;
78183;SDS011;67442;44.570;18.610;2023-11-21T02:45:27;31.55;;;17.70;;
78183;SDS011;67442;44.570;18.610;2023-11-21T02:47:58;28.52;;;17.10;;
78183;SDS011;67442;44.570;18.610;2023-11-21T02:50:25;31.95;;;17.50;;
78183;SDS011;67442;44.570;18.610;2023-11-21T02:52:55;30.40;;;18.00;;
78183;SDS011;67442;44.570;18.610;2023-11-21T02:55:26;30.05;;;16.88;;
78183;SDS011;67442;44.570;18.610;2023-11-21T02:57:53;30.98;;;17.60;;
78183;SDS011;67442;44.570;18.610;2023-11-21T03:00:23;30.42;;;17.35;;
78183;SDS011;67442;44.570;18.610;2023-11-21T03:02:51;29.95;;;17.08;;
78183;SDS011;67442;44.570;18.610;2023-11-21T03:05:18;32.92;;;17.70;;
78183;SDS011;67442;44.570;18.610;2023-11-21T03:07:47;30.15;;;17.10;;
78183;SDS011;67442;44.570;18.610;2023-11-21T03:10:13;31.27;;;18.02;;
78183;SDS011;67442;44.570;18.610;2023-11-21T03:12:41;31.52;;;17.15;;
78183;SDS011;67442;44.570;18.610;2023-11-21T03:15:10;29.35;;;17.13;;
78183;SDS011;67442;44.570;18.610;2023-11-21T03:17:37;30.67;;;16.60;;
78183;SDS011;67442;44.570;18.610;2023-11-21T03:20:08;29.95;;;16.85;;
78183;SDS011;67442;44.570;18.610;2023-11-21T03:22:37;31.52;;;17.40;;
78183;SDS011;67442;44.570;18.610;2023-11-21T03:25:04;31.73;;;18.08;;
78183;SDS011;67442;44.570;18.610;2023-11-21T03:27:36;31.25;;;16.48;;
78183;SDS011;67442;44.570;18.610;2023-11-21T03:30:08;32.38;;;17.92;;
78183;SDS011;67442;44.570;18.610;2023-11-21T03:32:35;27.92;;;15.85;;
78183;SDS011;67442;44.570;18.610;2023-11-21T03:35:02;30.73;;;17.20;;
78183;SDS011;67442;44.570;18.610;2023-11-21T03:37:31;32.33;;;17.38;;
78183;SDS011;67442;44.570;18.610;2023-11-21T03:39:58;30.58;;;17.80;;
78183;SDS011;67442;44.570;18.610;2023-11-21T03:42:25;29.65;;;16.80;;
78183;SDS011;67442;44.570;18.610;2023-11-21T03:44:53;27.70;;;15.93;;
78183;SDS011;67442;44.570;18.610;2023-11-21T03:47:20;31.23;;;17.65;;
78183;SDS011;67442;44.570;18.610;2023-11-21T03:49:47;27.33;;;15.90;;
78183;SDS011;67442;44.570;18.610;2023-11-21T03:52:13;32.55;;;17.90;;
78183;SDS011;67442;44.570;18.610;2023-11-21T03:54:41;31.85;;;17.42;;
78183;SDS011;67442;44.570;18.610;2023-11-21T03:57:08;31.98;;;18.08;;
78183;SDS011;67442;44.570;18.610;2023-11-21T03:59:35;30.50;;;17.38;;
78183;SDS011;67442;44.570;18.610;2023-11-21T04:02:09;30.95;;;17.73;;
78183;SDS011;67442;44.570;18.610;2023-11-21T04:04:37;31.27;;;17.05;;
78183;SDS011;67442;44.570;18.610;2023-11-21T04:07:07;28.17;;;16.30;;
78183;SDS011;67442;44.570;18.610;2023-11-21T04:09:35;28.25;;;16.48;;
78183;SDS011;67442;44.570;18.610;2023-11-21T04:12:02;31.02;;;17.00;;
78183;SDS011;67442;44.570;18.610;2023-11-21T04:14:31;29.00;;;16.95;;
78183;SDS011;67442;44.570;18.610;2023-11-21T04:17:02;32.00;;;17.52;;
78183;SDS011;67442;44.570;18.610;2023-11-21T04:19:34;30.60;;;17.10;;
78183;SDS011;67442;44.570;18.610;2023-11-21T04:22:01;31.55;;;17.25;;
78183;SDS011;67442;44.570;18.610;2023-11-21T04:24:29;30.55;;;16.75;;
78183;SDS011;67442;44.570;18.610;2023-11-21T04:26:56;29.67;;;15.80;;
78183;SDS011;67442;44.570;18.610;2023-11-21T04:29:28;28.15;;;16.65;;
78183;SDS011;67442;44.570;18.610;2023-11-21T04:31:55;32.95;;;17.88;;
78183;SDS011;67442;44.570;18.610;2023-11-21T04:34:21;28.00;;;16.75;;
78183;SDS011;67442;44.570;18.610;2023-11-21T04:36:49;29.63;;;17.25;;
78183;SDS011;67442;44.570;18.610;2023-11-21T04:39:20;34.08;;;17.33;;
78183;SDS011;67442;44.570;18.610;2023-11-21T04:41:47;27.58;;;16.65;;
78183;SDS011;67442;44.570;18.610;2023-11-21T04:44:15;29.27;;;15.93;;
78183;SDS011;67442;44.570;18.610;2023-11-21T04:46:42;29.15;;;16.23;;
78183;SDS011;67442;44.570;18.610;2023-11-21T04:49:09;29.55;;;16.48;;
78183;SDS011;67442;44.570;18.610;2023-11-21T04:51:37;30.00;;;16.63;;
78183;SDS011;67442;44.570;18.610;2023-11-21T04:54:04;28.13;;;16.17;;
78183;SDS011;67442;44.570;18.610;2023-11-21T04:56:31;28.77;;;16.95;;
78183;SDS011;67442;44.570;18.610;2023-11-21T04:59:02;30.30;;;17.25;;
78183;SDS011;67442;44.570;18.610;2023-11-21T05:01:30;27.38;;;16.35;;
78183;SDS011;67442;44.570;18.610;2023-11-21T05:03:57;28.70;;;17.10;;
78183;SDS011;67442;44.570;18.610;2023-11-21T05:06:28;29.20;;;16.45;;
78183;SDS011;67442;44.570;18.610;2023-11-21T05:09:00;29.48;;;16.20;;
78183;SDS011;67442;44.570;18.610;2023-11-21T05:11:28;28.55;;;15.90;;
78183;SDS011;67442;44.570;18.610;2023-11-21T05:13:54;27.08;;;15.60;;
78183;SDS011;67442;44.570;18.610;2023-11-21T05:16:24;27.02;;;15.70;;
78183;SDS011;67442;44.570;18.610;2023-11-21T05:18:53;27.38;;;15.65;;
78183;SDS011;67442;44.570;18.610;2023-11-21T05:21:28;25.48;;;16.25;;
78183;SDS011;67442;44.570;18.610;2023-11-21T05:23:59;28.70;;;16.40;;
78183;SDS011;67442;44.570;18.610;2023-11-21T05:26:26;27.40;;;15.50;;
78183;SDS011;67442;44.570;18.610;2023-11-21T05:28:57;27.95;;;16.08;;
78183;SDS011;67442;44.570;18.610;2023-11-21T05:31:25;29.25;;;17.00;;
78183;SDS011;67442;44.570;18.610;2023-11-21T05:33:55;31.42;;;16.15;;
78183;SDS011;67442;44.570;18.610;2023-11-21T05:36:22;28.58;;;16.73;;
78183;SDS011;67442;44.570;18.610;2023-11-21T05:38:50;29.17;;;16.17;;
78183;SDS011;67442;44.570;18.610;2023-11-21T05:41:21;28.50;;;16.88;;
78183;SDS011;67442;44.570;18.610;2023-11-21T05:43:49;29.30;;;16.92;;
78183;SDS011;67442;44.570;18.610;2023-11-21T05:46:16;29.10;;;16.98;;
78183;SDS011;67442;44.570;18.610;2023-11-21T05:48:44;33.10;;;16.95;;
78183;SDS011;67442;44.570;18.610;2023-11-21T05:51:11;51.60;;;20.65;;
78183;SDS011;67442;44.570;18.610;2023-11-21T05:53:39;54.90;;;22.10;;
78183;SDS011;67442;44.570;18.610;2023-11-21T05:56:10;58.63;;;22.40;;
78183;SDS011;67442;44.570;18.610;2023-11-21T05:58:37;62.78;;;23.17;;
78183;SDS011;67442;44.570;18.610;2023-11-21T06:01:05;61.22;;;23.58;;
78183;SDS011;67442;44.570;18.610;2023-11-21T06:03:52;58.95;;;24.05;;
78183;SDS011;67442;44.570;18.610;2023-11-21T06:06:21;58.92;;;24.13;;
78183;SDS011;67442;44.570;18.610;2023-11-21T06:08:51;53.42;;;23.52;;
78183;SDS011;67442;44.570;18.610;2023-11-21T06:11:23;57.92;;;24.85;;
78183;SDS011;67442;44.570;18.610;2023-11-21T06:13:54;55.92;;;22.98;;
78183;SDS011;67442;44.570;18.610;2023-11-21T06:16:21;48.50;;;22.88;;
78183;SDS011;67442;44.570;18.610;2023-11-21T06:18:49;53.97;;;22.50;;
78183;SDS011;67442;44.570;18.610;2023-11-21T06:21:20;52.13;;;22.45;;
78183;SDS011;67442;44.570;18.610;2023-11-21T06:23:48;53.30;;;22.73;;
78183;SDS011;67442;44.570;18.610;2023-11-21T06:26:21;44.58;;;20.75;;
78183;SDS011;67442;44.570;18.610;2023-11-21T06:28:48;52.30;;;22.33;;
78183;SDS011;67442;44.570;18.610;2023-11-21T06:31:16;49.20;;;21.38;;
78183;SDS011;67442;44.570;18.610;2023-11-21T06:33:44;46.67;;;21.08;;
78183;SDS011;67442;44.570;18.610;2023-11-21T06:36:15;49.78;;;20.90;;
78183;SDS011;67442;44.570;18.610;2023-11-21T06:38:42;50.92;;;22.60;;
78183;SDS011;67442;44.570;18.610;2023-11-21T06:41:11;51.63;;;22.27;;
78183;SDS011;67442;44.570;18.610;2023-11-21T06:43:41;48.58;;;22.02;;
78183;SDS011;67442;44.570;18.610;2023-11-21T06:46:14;45.08;;;20.20;;
78183;SDS011;67442;44.570;18.610;2023-11-21T06:48:44;43.45;;;21.15;;
78183;SDS011;67442;44.570;18.610;2023-11-21T06:51:12;48.30;;;21.00;;
78183;SDS011;67442;44.570;18.610;2023-11-21T06:53:39;48.85;;;21.92;;
78183;SDS011;67442;44.570;18.610;2023-11-21T06:56:14;43.20;;;20.55;;
78183;SDS011;67442;44.570;18.610;2023-11-21T06:58:48;43.97;;;20.23;;
78183;SDS011;67442;44.570;18.610;2023-11-21T07:01:19;49.22;;;21.73;;
78183;SDS011;67442;44.570;18.610;2023-11-21T07:03:50;44.78;;;20.83;;
78183;SDS011;67442;44.570;18.610;2023-11-21T07:06:21;46.88;;;20.85;;
78183;SDS011;67442;44.570;18.610;2023-11-21T07:08:48;46.28;;;21.80;;
78183;SDS011;67442;44.570;18.610;2023-11-21T07:11:21;46.72;;;21.33;;
78183;SDS011;67442;44.570;18.610;2023-11-21T07:13:49;44.95;;;22.08;;
78183;SDS011;67442;44.570;18.610;2023-11-21T07:16:17;45.58;;;20.65;;
78183;SDS011;67442;44.570;18.610;2023-11-21T07:18:50;44.33;;;21.77;;
78183;SDS011;67442;44.570;18.610;2023-11-21T07:21:17;43.30;;;21.10;;
78183;SDS011;67442;44.570;18.610;2023-11-21T07:23:45;49.05;;;21.30;;
78183;SDS011;67442;44.570;18.610;2023-11-21T07:26:16;46.58;;;21.50;;
78183;SDS011;67442;44.570;18.610;2023-11-21T07:28:43;43.30;;;20.42;;
78183;SDS011;67442;44.570;18.610;2023-11-21T07:31:10;38.50;;;21.02;;
78183;SDS011;67442;44.570;18.610;2023-11-21T07:33:38;45.63;;;21.48;;
78183;SDS011;67442;44.570;18.610;2023-11-21T07:36:06;43.67;;;20.13;;
78183;SDS011;67442;44.570;18.610;2023-11-21T07:38:36;46.83;;;21.80;;
78183;SDS011;67442;44.570;18.610;2023-11-21T07:41:07;43.35;;;20.17;;
78183;SDS011;67442;44.570;18.610;2023-11-21T07:43:35;47.97;;;21.48;;
78183;SDS011;67442;44.570;18.610;2023-11-21T07:46:02;39.78;;;20.45;;
78183;SDS011;67442;44.570;18.610;2023-11-21T07:48:32;41.75;;;21.52;;
78183;SDS011;67442;44.570;18.610;2023-11-21T07:51:00;38.53;;;19.73;;
78183;SDS011;67442;44.570;18.610;2023-11-21T07:53:29;42.25;;;20.67;;
78183;SDS011;67442;44.570;18.610;2023-11-21T07:55:56;43.65;;;21.48;;
78183;SDS011;67442;44.570;18.610;2023-11-21T07:58:24;44.05;;;21.02;;
78183;SDS011;67442;44.570;18.610;2023-11-21T08:00:51;40.95;;;20.52;;
78183;SDS011;67442;44.570;18.610;2023-11-21T08:03:18;46.38;;;20.90;;
78183;SDS011;67442;44.570;18.610;2023-11-21T08:05:46;42.03;;;20.38;;
78183;SDS011;67442;44.570;18.610;2023-11-21T08:08:17;45.78;;;20.30;;
78183;SDS011;67442;44.570;18.610;2023-11-21T08:10:45;45.75;;;21.45;;
78183;SDS011;67442;44.570;18.610;2023-11-21T08:13:25;45.28;;;20.42;;
78183;SDS011;67442;44.570;18.610;2023-11-21T08:15:56;41.22;;;20.52;;
78183;SDS011;67442;44.570;18.610;2023-11-21T08:18:27;42.45;;;21.27;;
78183;SDS011;67442;44.570;18.610;2023-11-21T08:20:54;42.92;;;21.45;;
78183;SDS011;67442;44.570;18.610;2023-11-21T08:23:21;39.10;;;19.13;;
78183;SDS011;67442;44.570;18.610;2023-11-21T08:25:50;43.55;;;21.23;;
78183;SDS011;67442;44.570;18.610;2023-11-21T08:28:17;43.20;;;21.95;;
78183;SDS011;67442;44.570;18.610;2023-11-21T08:30:45;42.80;;;21.58;;
78183;SDS011;67442;44.570;18.610;2023-11-21T08:33:13;41.53;;;21.40;;
78183;SDS011;67442;44.570;18.610;2023-11-21T08:35:40;43.75;;;21.50;;
78183;SDS011;67442;44.570;18.610;2023-11-21T08:38:08;41.13;;;20.98;;
78183;SDS011;67442;44.570;18.610;2023-11-21T08:40:36;45.65;;;21.73;;
78183;SDS011;67442;44.570;18.610;2023-11-21T08:43:07;40.33;;;21.08;;
78183;SDS011;67442;44.570;18.610;2023-11-21T08:45:34;44.42;;;21.38;;
78183;SDS011;67442;44.570;18.610;2023-11-21T08:48:02;43.80;;;20.65;;
78183;SDS011;67442;44.570;18.610;2023-11-21T08:50:31;43.45;;;20.98;;
78183;SDS011;67442;44.570;18.610;2023-11-21T08:53:02;41.08;;;20.88;;
78183;SDS011;67442;44.570;18.610;2023-11-21T08:55:33;43.22;;;20.98;;
78183;SDS011;67442;44.570;18.610;2023-11-21T08:58:02;39.95;;;20.80;;
78183;SDS011;67442;44.570;18.610;2023-11-21T09:00:34;44.72;;;21.02;;
78183;SDS011;67442;44.570;18.610;2023-11-21T09:03:03;42.00;;;20.98;;
78183;SDS011;67442;44.570;18.610;2023-11-21T09:05:37;40.65;;;20.95;;
78183;SDS011;67442;44.570;18.610;2023-11-21T09:08:08;40.85;;;20.40;;
78183;SDS011;67442;44.570;18.610;2023-11-21T09:10:35;37.50;;;20.23;;
78183;SDS011;67442;44.570;18.610;2023-11-21T09:13:03;38.75;;;20.67;;
78183;SDS011;67442;44.570;18.610;2023-11-21T09:15:30;37.42;;;19.88;;
78183;SDS011;67442;44.570;18.610;2023-11-21T09:18:01;42.88;;;20.63;;
78183;SDS011;67442;44.570;18.610;2023-11-21T09:20:28;40.13;;;19.80;;
78183;SDS011;67442;44.570;18.610;2023-11-21T09:22:59;38.20;;;20.65;;
78183;SDS011;67442;44.570;18.610;2023-11-21T09:25:27;40.63;;;20.90;;
78183;SDS011;67442;44.570;18.610;2023-11-21T09:27:55;40.67;;;20.98;;
78183;SDS011;67442;44.570;18.610;2023-11-21T09:30:26;42.13;;;19.73;;
78183;SDS011;67442;44.570;18.610;2023-11-21T09:32:58;40.08;;;19.73;;
78183;SDS011;67442;44.570;18.610;2023-11-21T09:35:26;40.03;;;20.65;;
78183;SDS011;67442;44.570;18.610;2023-11-21T09:37:53;38.60;;;19.55;;
78183;SDS011;67442;44.570;18.610;2023-11-21T09:40:24;36.92;;;21.05;;
78183;SDS011;67442;44.570;18.610;2023-11-21T09:42:55;40.33;;;20.05;;
78183;SDS011;67442;44.570;18.610;2023-11-21T09:45:26;35.88;;;19.25;;
78183;SDS011;67442;44.570;18.610;2023-11-21T09:48:03;39.78;;;19.55;;
78183;SDS011;67442;44.570;18.610;2023-11-21T09:50:33;40.33;;;20.23;;
78183;SDS011;67442;44.570;18.610;2023-11-21T09:55:44;38.42;;;20.20;;
78183;SDS011;67442;44.570;18.610;2023-11-21T09:58:13;36.25;;;19.77;;
78183;SDS011;67442;44.570;18.610;2023-11-21T10:00:41;35.35;;;18.90;;
78183;SDS011;67442;44.570;18.610;2023-11-21T10:03:14;35.85;;;20.00;;
78183;SDS011;67442;44.570;18.610;2023-11-21T10:05:44;35.22;;;19.02;;
78183;SDS011;67442;44.570;18.610;2023-11-21T10:08:12;38.70;;;19.88;;
78183;SDS011;67442;44.570;18.610;2023-11-21T10:10:43;36.72;;;18.85;;
78183;SDS011;67442;44.570;18.610;2023-11-21T10:13:12;37.78;;;19.33;;
78183;SDS011;67442;44.570;18.610;2023-11-21T10:15:49;36.92;;;18.88;;
78183;SDS011;67442;44.570;18.610;2023-11-21T10:18:33;31.90;;;18.45;;
78183;SDS011;67442;44.570;18.610;2023-11-21T10:21:04;37.53;;;19.40;;
78183;SDS011;67442;44.570;18.610;2023-11-21T10:23:35;39.17;;;19.30;;
78183;SDS011;67442;44.570;18.610;2023-11-21T10:26:03;35.60;;;19.05;;
78183;SDS011;67442;44.570;18.610;2023-11-21T10:28:36;33.83;;;18.15;;
78183;SDS011;67442;44.570;18.610;2023-11-21T10:31:06;35.25;;;18.20;;
78183;SDS011;67442;44.570;18.610;2023-11-21T10:33:37;39.05;;;19.88;;
78183;SDS011;67442;44.570;18.610;2023-11-21T10:36:08;38.63;;;18.65;;
78183;SDS011;67442;44.570;18.610;2023-11-21T10:38:42;37.42;;;19.02;;
78183;SDS011;67442;44.570;18.610;2023-11-21T10:41:15;38.15;;;19.20;;
78183;SDS011;67442;44.570;18.610;2023-11-21T10:43:43;40.72;;;19.67;;
78183;SDS011;67442;44.570;18.610;2023-11-21T10:46:11;39.72;;;19.92;;
78183;SDS011;67442;44.570;18.610;2023-11-21T10:48:43;35.30;;;18.83;;
78183;SDS011;67442;44.570;18.610;2023-11-21T10:51:12;34.13;;;19.55;;
78183;SDS011;67442;44.570;18.610;2023-11-21T10:53:44;34.42;;;17.85;;
78183;SDS011;67442;44.570;18.610;2023-11-21T10:56:12;36.00;;;19.48;;
78183;SDS011;67442;44.570;18.610;2023-11-21T10:58:45;35.03;;;17.95;;
78183;SDS011;67442;44.570;18.610;2023-11-21T11:01:16;32.15;;;18.20;;
78183;SDS011;67442;44.570;18.610;2023-11-21T11:03:44;38.92;;;19.35;;
78183;SDS011;67442;44.570;18.610;2023-11-21T11:06:17;35.50;;;18.42;;
78183;SDS011;67442;44.570;18.610;2023-11-21T11:08:44;33.50;;;18.50;;
78183;SDS011;67442;44.570;18.610;2023-11-21T11:11:13;32.65;;;17.70;;
78183;SDS011;67442;44.570;18.610;2023-11-21T11:13:44;32.25;;;18.05;;
78183;SDS011;67442;44.570;18.610;2023-11-21T11:16:11;32.75;;;17.63;;
78183;SDS011;67442;44.570;18.610;2023-11-21T11:18:42;33.53;;;18.65;;
78183;SDS011;67442;44.570;18.610;2023-11-21T11:38:58;30.73;;;17.02;;
78183;SDS011;67442;44.570;18.610;2023-11-21T11:41:31;32.63;;;18.45;;
78183;SDS011;67442;44.570;18.610;2023-11-21T11:44:00;33.75;;;17.52;;
78183;SDS011;67442;44.570;18.610;2023-11-21T11:46:44;33.88;;;17.80;;
78183;SDS011;67442;44.570;18.610;2023-11-21T11:49:24;34.25;;;17.48;;
78183;SDS011;67442;44.570;18.610;2023-11-21T11:55:09;33.00;;;17.10;;
78183;SDS011;67442;44.570;18.610;2023-11-21T11:57:38;31.60;;;17.42;;
78183;SDS011;67442;44.570;18.610;2023-11-21T12:00:16;27.83;;;16.70;;
78183;SDS011;67442;44.570;18.610;2023-11-21T12:03:03;36.25;;;17.67;;
78183;SDS011;67442;44.570;18.610;2023-11-21T12:05:31;30.75;;;17.02;;
78183;SDS011;67442;44.570;18.610;2023-11-21T12:08:07;30.92;;;16.88;;
78183;SDS011;67442;44.570;18.610;2023-11-21T12:10:35;29.58;;;16.52;;
78183;SDS011;67442;44.570;18.610;2023-11-21T12:13:07;29.58;;;16.15;;
78183;SDS011;67442;44.570;18.610;2023-11-21T12:15:36;29.10;;;15.77;;
78183;SDS011;67442;44.570;18.610;2023-11-21T12:18:03;29.77;;;16.15;;
78183;SDS011;67442;44.570;18.610;2023-11-21T12:20:34;28.55;;;15.80;;
78183;SDS011;67442;44.570;18.610;2023-11-21T12:23:07;28.70;;;16.02;;
78183;SDS011;67442;44.570;18.610;2023-11-21T12:25:39;29.42;;;15.88;;
78183;SDS011;67442;44.570;18.610;2023-11-21T12:28:07;31.52;;;16.85;;
78183;SDS011;67442;44.570;18.610;2023-11-21T12:30:35;28.77;;;15.20;;
78183;SDS011;67442;44.570;18.610;2023-11-21T12:33:07;30.77;;;16.00;;
78183;SDS011;67442;44.570;18.610;2023-11-21T12:35:41;27.90;;;15.85;;
78183;SDS011;67442;44.570;18.610;2023-11-21T12:38:10;28.90;;;15.82;;
78183;SDS011;67442;44.570;18.610;2023-11-21T12:40:37;28.60;;;15.80;;
78183;SDS011;67442;44.570;18.610;2023-11-21T12:43:06;29.10;;;15.60;;
78183;SDS011;67442;44.570;18.610;2023-11-21T12:45:35;28.35;;;15.93;;
78183;SDS011;67442;44.570;18.610;2023-11-21T12:48:04;29.33;;;16.40;;
78183;SDS011;67442;44.570;18.610;2023-11-21T12:50:36;29.85;;;15.95;;
78183;SDS011;67442;44.570;18.610;2023-11-21T12:53:09;31.15;;;15.98;;
78183;SDS011;67442;44.570;18.610;2023-11-21T12:55:44;32.90;;;16.52;;
78183;SDS011;67442;44.570;18.610;2023-11-21T12:58:15;27.02;;;15.23;;
78183;SDS011;67442;44.570;18.610;2023-11-21T13:00:45;30.17;;;16.05;;
78183;SDS011;67442;44.570;18.610;2023-11-21T13:05:49;29.48;;;14.63;;
78183;SDS011;67442;44.570;18.610;2023-11-21T13:08:19;26.58;;;14.52;;
78183;SDS011;67442;44.570;18.610;2023-11-21T13:10:51;27.25;;;15.35;;
78183;SDS011;67442;44.570;18.610;2023-11-21T13:13:20;26.80;;;14.80;;
78183;SDS011;67442;44.570;18.610;2023-11-21T13:15:54;27.48;;;14.98;;
78183;SDS011;67442;44.570;18.610;2023-11-21T13:18:33;28.75;;;15.23;;
78183;SDS011;67442;44.570;18.610;2023-11-21T13:21:04;29.15;;;15.52;;
78183;SDS011;67442;44.570;18.610;2023-11-21T13:23:41;25.15;;;14.77;;
78183;SDS011;67442;44.570;18.610;2023-11-21T13:26:10;24.52;;;14.68;;
78183;SDS011;67442;44.570;18.610;2023-11-21T13:28:37;26.92;;;15.07;;
78183;SDS011;67442;44.570;18.610;2023-11-21T13:31:07;25.98;;;15.05;;
78183;SDS011;67442;44.570;18.610;2023-11-21T13:33:48;24.45;;;14.25;;
78183;SDS011;67442;44.570;18.610;2023-11-21T13:36:24;24.58;;;13.98;;
78183;SDS011;67442;44.570;18.610;2023-11-21T13:38:55;27.05;;;15.32;;
78183;SDS011;67442;44.570;18.610;2023-11-21T13:41:24;24.73;;;14.32;;
78183;SDS011;67442;44.570;18.610;2023-11-21T13:43:56;23.67;;;14.18;;
78183;SDS011;67442;44.570;18.610;2023-11-21T13:46:32;26.63;;;14.15;;
78183;SDS011;67442;44.570;18.610;2023-11-21T13:49:02;25.10;;;14.10;;
78183;SDS011;67442;44.570;18.610;2023-11-21T13:51:38;24.42;;;13.90;;
78183;SDS011;67442;44.570;18.610;2023-11-21T13:54:10;26.13;;;13.90;;
78183;SDS011;67442;44.570;18.610;2023-11-21T13:56:41;22.95;;;13.48;;
78183;SDS011;67442;44.570;18.610;2023-11-21T13:59:10;24.88;;;14.52;;
78183;SDS011;67442;44.570;18.610;2023-11-21T14:01:49;24.73;;;13.75;;
78183;SDS011;67442;44.570;18.610;2023-11-21T14:04:37;25.80;;;14.15;;
78183;SDS011;67442;44.570;18.610;2023-11-21T14:07:19;26.02;;;13.77;;
78183;SDS011;67442;44.570;18.610;2023-11-21T14:10:01;24.45;;;14.65;;
78183;SDS011;67442;44.570;18.610;2023-11-21T14:12:38;25.08;;;13.95;;
78183;SDS011;67442;44.570;18.610;2023-11-21T14:15:08;23.63;;;14.30;;
78183;SDS011;67442;44.570;18.610;2023-11-21T14:17:37;26.60;;;13.77;;
78183;SDS011;67442;44.570;18.610;2023-11-21T14:20:06;23.02;;;12.82;;
78183;SDS011;67442;44.570;18.610;2023-11-21T14:22:41;24.13;;;13.25;;
78183;SDS011;67442;44.570;18.610;2023-11-21T14:25:08;24.88;;;13.60;;
78183;SDS011;67442;44.570;18.610;2023-11-21T14:27:40;23.75;;;13.18;;
78183;SDS011;67442;44.570;18.610;2023-11-21T14:30:08;23.38;;;12.65;;
78183;SDS011;67442;44.570;18.610;2023-11-21T14:32:38;24.38;;;13.32;;
78183;SDS011;67442;44.570;18.610;2023-11-21T14:35:06;21.23;;;12.63;;
78183;SDS011;67442;44.570;18.610;2023-11-21T14:37:34;20.17;;;12.23;;
78183;SDS011;67442;44.570;18.610;2023-11-21T14:40:05;21.90;;;13.15;;
78183;SDS011;67442;44.570;18.610;2023-11-21T14:42:35;22.63;;;13.07;;
78183;SDS011;67442;44.570;18.610;2023-11-21T14:45:05;24.02;;;14.07;;
78183;SDS011;67442;44.570;18.610;2023-11-21T14:47:41;24.42;;;13.73;;
78183;SDS011;67442;44.570;18.610;2023-11-21T14:50:13;21.90;;;12.80;;